Archival Weather

Václav Havel Intl Apt

Prague, Czechia (LKPR)

Report from: Monday, May 29, 2023 3:00 AM CEST
Current time: Friday, July 19, 2024 3:40 AM CEST

Current weather – Weather history – Daily summaries
Weather forecast

Temperature10.0°C (50.0°F)
Wind chill8.8°C (47.8°F)
Dew point5.0°C (41.0°F)
Winds 5 kts (2.6 m/s, 5.8 mph) North (350°)
Clouds Sky clear
Altimeter30.09 in.Hg (1019 mB)
Relative humidity71 %
Density altitude-665 ft. (-203 m)
Remarks Ceiling and visibility OK
No significant changes expected in the next two hours
Flight conditions Visual Meteorological Conditions
Raw dataLKPR 290100Z 35005KT CAVOK 10/05 Q1019 NOSIG
An error has occurred. This application may no longer respond until reloaded. Reload 🗙